sensor_id;sensor_type;location;lat;lon;timestamp;P1;durP1;ratioP1;P2;durP2;ratioP2
9761;SDS011;4920;49.594;11.022;2022-07-29T00:01:19;5.35;;;1.83;;
9761;SDS011;4920;49.594;11.022;2022-07-29T00:03:47;5.00;;;2.00;;
9761;SDS011;4920;49.594;11.022;2022-07-29T00:06:16;3.55;;;2.03;;
9761;SDS011;4920;49.594;11.022;2022-07-29T00:08:44;5.47;;;2.30;;
9761;SDS011;4920;49.594;11.022;2022-07-29T00:11:12;2.85;;;2.03;;
9761;SDS011;4920;49.594;11.022;2022-07-29T00:13:40;4.47;;;2.17;;
9761;SDS011;4920;49.594;11.022;2022-07-29T00:16:17;6.70;;;2.00;;
9761;SDS011;4920;49.594;11.022;2022-07-29T00:18:45;4.20;;;1.90;;
9761;SDS011;4920;49.594;11.022;2022-07-29T00:21:14;3.75;;;2.00;;
9761;SDS011;4920;49.594;11.022;2022-07-29T00:23:42;4.82;;;2.00;;
9761;SDS011;4920;49.594;11.022;2022-07-29T00:26:11;4.55;;;2.20;;
9761;SDS011;4920;49.594;11.022;2022-07-29T00:28:39;5.63;;;2.13;;
9761;SDS011;4920;49.594;11.022;2022-07-29T00:31:07;6.28;;;2.08;;
9761;SDS011;4920;49.594;11.022;2022-07-29T00:33:37;3.92;;;2.00;;
9761;SDS011;4920;49.594;11.022;2022-07-29T00:36:05;4.13;;;2.00;;
9761;SDS011;4920;49.594;11.022;2022-07-29T00:38:32;6.70;;;2.15;;
9761;SDS011;4920;49.594;11.022;2022-07-29T00:41:01;6.47;;;1.83;;
9761;SDS011;4920;49.594;11.022;2022-07-29T00:43:29;5.05;;;2.13;;
9761;SDS011;4920;49.594;11.022;2022-07-29T00:45:57;7.47;;;2.15;;
9761;SDS011;4920;49.594;11.022;2022-07-29T00:48:26;4.03;;;2.00;;
9761;SDS011;4920;49.594;11.022;2022-07-29T00:50:55;3.42;;;2.10;;
9761;SDS011;4920;49.594;11.022;2022-07-29T00:53:25;3.50;;;2.10;;
9761;SDS011;4920;49.594;11.022;2022-07-29T00:55:54;3.35;;;2.08;;
9761;SDS011;4920;49.594;11.022;2022-07-29T00:58:23;3.78;;;2.00;;
9761;SDS011;4920;49.594;11.022;2022-07-29T01:00:52;3.42;;;2.00;;
9761;SDS011;4920;49.594;11.022;2022-07-29T01:03:20;3.40;;;2.03;;
9761;SDS011;4920;49.594;11.022;2022-07-29T01:05:49;7.78;;;2.10;;
9761;SDS011;4920;49.594;11.022;2022-07-29T01:08:19;7.22;;;2.35;;
9761;SDS011;4920;49.594;11.022;2022-07-29T01:10:48;5.57;;;1.98;;
9761;SDS011;4920;49.594;11.022;2022-07-29T01:13:21;4.50;;;1.90;;
9761;SDS011;4920;49.594;11.022;2022-07-29T01:15:51;4.85;;;2.00;;
9761;SDS011;4920;49.594;11.022;2022-07-29T01:18:26;7.55;;;2.08;;
9761;SDS011;4920;49.594;11.022;2022-07-29T01:24:02;5.65;;;2.35;;
9761;SDS011;4920;49.594;11.022;2022-07-29T01:26:48;4.95;;;1.90;;
9761;SDS011;4920;49.594;11.022;2022-07-29T01:29:26;4.03;;;2.08;;
9761;SDS011;4920;49.594;11.022;2022-07-29T01:32:07;6.97;;;2.38;;
9761;SDS011;4920;49.594;11.022;2022-07-29T01:34:55;5.35;;;2.33;;
9761;SDS011;4920;49.594;11.022;2022-07-29T01:37:32;6.53;;;2.30;;
9761;SDS011;4920;49.594;11.022;2022-07-29T01:40:07;4.50;;;1.90;;
9761;SDS011;4920;49.594;11.022;2022-07-29T01:42:42;4.93;;;2.00;;
9761;SDS011;4920;49.594;11.022;2022-07-29T01:45:19;4.22;;;2.20;;
9761;SDS011;4920;49.594;11.022;2022-07-29T01:47:53;3.70;;;2.13;;
9761;SDS011;4920;49.594;11.022;2022-07-29T01:50:26;5.70;;;2.10;;
9761;SDS011;4920;49.594;11.022;2022-07-29T01:52:59;3.67;;;1.85;;
9761;SDS011;4920;49.594;11.022;2022-07-29T01:55:30;6.75;;;2.42;;
9761;SDS011;4920;49.594;11.022;2022-07-29T01:58:02;4.15;;;2.10;;
9761;SDS011;4920;49.594;11.022;2022-07-29T02:00:33;3.67;;;1.98;;
9761;SDS011;4920;49.594;11.022;2022-07-29T02:03:04;4.13;;;2.05;;
9761;SDS011;4920;49.594;11.022;2022-07-29T02:05:36;6.00;;;2.10;;
9761;SDS011;4920;49.594;11.022;2022-07-29T02:08:07;6.47;;;2.25;;
9761;SDS011;4920;49.594;11.022;2022-07-29T02:10:38;4.80;;;2.30;;
9761;SDS011;4920;49.594;11.022;2022-07-29T02:13:08;5.93;;;2.20;;
9761;SDS011;4920;49.594;11.022;2022-07-29T02:15:40;5.00;;;2.50;;
9761;SDS011;4920;49.594;11.022;2022-07-29T02:18:11;6.95;;;2.05;;
9761;SDS011;4920;49.594;11.022;2022-07-29T02:20:43;5.85;;;2.10;;
9761;SDS011;4920;49.594;11.022;2022-07-29T02:23:14;5.80;;;2.10;;
9761;SDS011;4920;49.594;11.022;2022-07-29T02:25:48;6.20;;;1.98;;
9761;SDS011;4920;49.594;11.022;2022-07-29T02:28:18;4.15;;;2.20;;
9761;SDS011;4920;49.594;11.022;2022-07-29T02:30:51;4.25;;;2.30;;
9761;SDS011;4920;49.594;11.022;2022-07-29T02:33:20;4.05;;;2.20;;
9761;SDS011;4920;49.594;11.022;2022-07-29T02:35:51;3.35;;;1.95;;
9761;SDS011;4920;49.594;11.022;2022-07-29T02:38:20;3.45;;;2.13;;
9761;SDS011;4920;49.594;11.022;2022-07-29T02:41:08;4.30;;;2.20;;
9761;SDS011;4920;49.594;11.022;2022-07-29T02:43:39;5.80;;;2.35;;
9761;SDS011;4920;49.594;11.022;2022-07-29T02:46:11;4.03;;;2.15;;
9761;SDS011;4920;49.594;11.022;2022-07-29T02:48:56;3.95;;;2.08;;
9761;SDS011;4920;49.594;11.022;2022-07-29T02:51:32;5.18;;;2.40;;
9761;SDS011;4920;49.594;11.022;2022-07-29T02:54:11;7.60;;;2.30;;
9761;SDS011;4920;49.594;11.022;2022-07-29T02:56:47;4.07;;;2.13;;
9761;SDS011;4920;49.594;11.022;2022-07-29T02:59:19;7.13;;;2.17;;
9761;SDS011;4920;49.594;11.022;2022-07-29T03:01:51;7.20;;;2.17;;
9761;SDS011;4920;49.594;11.022;2022-07-29T03:04:22;5.07;;;2.30;;
9761;SDS011;4920;49.594;11.022;2022-07-29T03:06:55;4.50;;;2.45;;
9761;SDS011;4920;49.594;11.022;2022-07-29T03:09:27;4.18;;;2.38;;
9761;SDS011;4920;49.594;11.022;2022-07-29T03:11:57;3.65;;;2.40;;
9761;SDS011;4920;49.594;11.022;2022-07-29T03:14:27;3.45;;;2.13;;
9761;SDS011;4920;49.594;11.022;2022-07-29T03:16:58;6.53;;;2.53;;
9761;SDS011;4920;49.594;11.022;2022-07-29T03:19:26;5.43;;;2.10;;
9761;SDS011;4920;49.594;11.022;2022-07-29T03:21:55;5.43;;;2.30;;
9761;SDS011;4920;49.594;11.022;2022-07-29T03:24:25;5.78;;;2.40;;
9761;SDS011;4920;49.594;11.022;2022-07-29T03:26:57;6.88;;;2.33;;
9761;SDS011;4920;49.594;11.022;2022-07-29T03:29:26;4.50;;;2.30;;
9761;SDS011;4920;49.594;11.022;2022-07-29T03:32:01;3.22;;;2.20;;
9761;SDS011;4920;49.594;11.022;2022-07-29T03:34:34;3.65;;;2.40;;
9761;SDS011;4920;49.594;11.022;2022-07-29T03:37:03;2.70;;;2.25;;
9761;SDS011;4920;49.594;11.022;2022-07-29T03:39:33;3.85;;;2.35;;
9761;SDS011;4920;49.594;11.022;2022-07-29T03:42:06;5.55;;;2.20;;
9761;SDS011;4920;49.594;11.022;2022-07-29T03:44:38;4.90;;;2.40;;
9761;SDS011;4920;49.594;11.022;2022-07-29T03:47:09;4.65;;;2.20;;
9761;SDS011;4920;49.594;11.022;2022-07-29T03:49:41;4.30;;;2.30;;
9761;SDS011;4920;49.594;11.022;2022-07-29T03:52:12;5.25;;;2.58;;
9761;SDS011;4920;49.594;11.022;2022-07-29T03:54:40;4.53;;;2.40;;
9761;SDS011;4920;49.594;11.022;2022-07-29T03:57:09;2.83;;;2.30;;
9761;SDS011;4920;49.594;11.022;2022-07-29T03:59:39;7.65;;;2.47;;
9761;SDS011;4920;49.594;11.022;2022-07-29T04:02:11;3.55;;;2.30;;
9761;SDS011;4920;49.594;11.022;2022-07-29T04:04:44;4.65;;;2.40;;
9761;SDS011;4920;49.594;11.022;2022-07-29T04:07:13;5.57;;;2.55;;
9761;SDS011;4920;49.594;11.022;2022-07-29T04:09:42;4.80;;;2.67;;
9761;SDS011;4920;49.594;11.022;2022-07-29T04:12:10;4.15;;;2.38;;
9761;SDS011;4920;49.594;11.022;2022-07-29T04:14:38;5.25;;;2.75;;
9761;SDS011;4920;49.594;11.022;2022-07-29T04:17:07;5.93;;;2.60;;
9761;SDS011;4920;49.594;11.022;2022-07-29T04:19:36;6.55;;;2.50;;
9761;SDS011;4920;49.594;11.022;2022-07-29T04:22:04;4.32;;;2.63;;
9761;SDS011;4920;49.594;11.022;2022-07-29T04:24:33;6.70;;;2.67;;
9761;SDS011;4920;49.594;11.022;2022-07-29T04:27:02;9.50;;;2.83;;
9761;SDS011;4920;49.594;11.022;2022-07-29T04:29:30;3.78;;;2.58;;
9761;SDS011;4920;49.594;11.022;2022-07-29T04:31:59;6.43;;;2.60;;
9761;SDS011;4920;49.594;11.022;2022-07-29T04:34:27;6.05;;;2.60;;
9761;SDS011;4920;49.594;11.022;2022-07-29T04:36:56;6.43;;;2.65;;
9761;SDS011;4920;49.594;11.022;2022-07-29T04:39:25;4.13;;;2.67;;
9761;SDS011;4920;49.594;11.022;2022-07-29T04:41:55;7.13;;;2.63;;
9761;SDS011;4920;49.594;11.022;2022-07-29T04:44:24;4.70;;;2.50;;
9761;SDS011;4920;49.594;11.022;2022-07-29T04:46:55;4.63;;;2.50;;
9761;SDS011;4920;49.594;11.022;2022-07-29T04:49:24;6.65;;;2.50;;
9761;SDS011;4920;49.594;11.022;2022-07-29T04:51:53;4.90;;;2.60;;
9761;SDS011;4920;49.594;11.022;2022-07-29T04:54:22;3.30;;;2.47;;
9761;SDS011;4920;49.594;11.022;2022-07-29T04:56:51;4.88;;;2.50;;
9761;SDS011;4920;49.594;11.022;2022-07-29T04:59:25;7.70;;;3.10;;
9761;SDS011;4920;49.594;11.022;2022-07-29T05:04:53;6.57;;;2.53;;
9761;SDS011;4920;49.594;11.022;2022-07-29T05:07:21;5.93;;;2.70;;
9761;SDS011;4920;49.594;11.022;2022-07-29T05:09:50;4.95;;;2.15;;
9761;SDS011;4920;49.594;11.022;2022-07-29T05:12:19;6.07;;;2.58;;
9761;SDS011;4920;49.594;11.022;2022-07-29T05:14:47;4.63;;;2.60;;
9761;SDS011;4920;49.594;11.022;2022-07-29T05:17:16;5.22;;;2.83;;
9761;SDS011;4920;49.594;11.022;2022-07-29T05:19:44;2.97;;;2.50;;
9761;SDS011;4920;49.594;11.022;2022-07-29T05:22:12;6.25;;;2.90;;
9761;SDS011;4920;49.594;11.022;2022-07-29T05:24:41;6.68;;;2.83;;
9761;SDS011;4920;49.594;11.022;2022-07-29T05:27:10;7.40;;;2.63;;
9761;SDS011;4920;49.594;11.022;2022-07-29T05:29:39;7.03;;;2.60;;
9761;SDS011;4920;49.594;11.022;2022-07-29T05:32:11;5.13;;;2.40;;
9761;SDS011;4920;49.594;11.022;2022-07-29T05:38:02;3.92;;;2.80;;
9761;SDS011;4920;49.594;11.022;2022-07-29T05:40:32;5.45;;;2.35;;
9761;SDS011;4920;49.594;11.022;2022-07-29T05:43:02;6.00;;;2.33;;
9761;SDS011;4920;49.594;11.022;2022-07-29T05:45:31;4.72;;;2.65;;
9761;SDS011;4920;49.594;11.022;2022-07-29T05:48:14;5.30;;;2.60;;
9761;SDS011;4920;49.594;11.022;2022-07-29T05:50:43;4.32;;;2.63;;
9761;SDS011;4920;49.594;11.022;2022-07-29T05:53:13;6.25;;;2.80;;
9761;SDS011;4920;49.594;11.022;2022-07-29T05:55:46;9.13;;;3.08;;
9761;SDS011;4920;49.594;11.022;2022-07-29T05:58:16;4.40;;;2.67;;
9761;SDS011;4920;49.594;11.022;2022-07-29T06:00:44;5.95;;;2.78;;
9761;SDS011;4920;49.594;11.022;2022-07-29T06:03:12;7.75;;;2.90;;
9761;SDS011;4920;49.594;11.022;2022-07-29T06:05:41;7.15;;;2.47;;
9761;SDS011;4920;49.594;11.022;2022-07-29T06:11:07;5.03;;;2.22;;
9761;SDS011;4920;49.594;11.022;2022-07-29T06:13:37;6.97;;;2.67;;
9761;SDS011;4920;49.594;11.022;2022-07-29T06:16:06;5.78;;;2.80;;
9761;SDS011;4920;49.594;11.022;2022-07-29T06:18:34;4.10;;;2.40;;
9761;SDS011;4920;49.594;11.022;2022-07-29T06:21:06;5.47;;;2.47;;
9761;SDS011;4920;49.594;11.022;2022-07-29T06:23:36;9.27;;;2.72;;
9761;SDS011;4920;49.594;11.022;2022-07-29T06:26:05;4.60;;;2.42;;
9761;SDS011;4920;49.594;11.022;2022-07-29T06:28:33;5.22;;;2.30;;
9761;SDS011;4920;49.594;11.022;2022-07-29T06:31:03;5.75;;;2.20;;
9761;SDS011;4920;49.594;11.022;2022-07-29T06:33:35;5.40;;;2.65;;
9761;SDS011;4920;49.594;11.022;2022-07-29T06:36:04;5.78;;;2.45;;
9761;SDS011;4920;49.594;11.022;2022-07-29T06:38:33;4.80;;;2.50;;
9761;SDS011;4920;49.594;11.022;2022-07-29T06:41:08;4.85;;;2.60;;
9761;SDS011;4920;49.594;11.022;2022-07-29T06:43:39;4.45;;;2.55;;
9761;SDS011;4920;49.594;11.022;2022-07-29T06:46:21;4.88;;;2.33;;
9761;SDS011;4920;49.594;11.022;2022-07-29T06:48:50;7.38;;;2.63;;
9761;SDS011;4920;49.594;11.022;2022-07-29T06:51:19;4.72;;;2.60;;
9761;SDS011;4920;49.594;11.022;2022-07-29T06:53:49;5.07;;;2.42;;
9761;SDS011;4920;49.594;11.022;2022-07-29T06:56:28;5.65;;;2.67;;
9761;SDS011;4920;49.594;11.022;2022-07-29T06:59:04;6.38;;;2.50;;
9761;SDS011;4920;49.594;11.022;2022-07-29T07:01:34;5.82;;;2.65;;
9761;SDS011;4920;49.594;11.022;2022-07-29T07:04:03;4.97;;;2.70;;
9761;SDS011;4920;49.594;11.022;2022-07-29T07:06:32;5.85;;;2.55;;
9761;SDS011;4920;49.594;11.022;2022-07-29T07:09:01;4.80;;;2.45;;
9761;SDS011;4920;49.594;11.022;2022-07-29T07:11:29;6.38;;;2.40;;
9761;SDS011;4920;49.594;11.022;2022-07-29T07:13:58;5.82;;;2.65;;
9761;SDS011;4920;49.594;11.022;2022-07-29T07:16:41;5.30;;;2.60;;
9761;SDS011;4920;49.594;11.022;2022-07-29T07:19:09;6.25;;;2.70;;
9761;SDS011;4920;49.594;11.022;2022-07-29T07:21:39;3.60;;;2.50;;
9761;SDS011;4920;49.594;11.022;2022-07-29T07:24:08;5.93;;;2.55;;
9761;SDS011;4920;49.594;11.022;2022-07-29T07:26:36;3.97;;;2.67;;
9761;SDS011;4920;49.594;11.022;2022-07-29T07:29:06;3.65;;;2.40;;
9761;SDS011;4920;49.594;11.022;2022-07-29T07:31:34;5.90;;;2.60;;
9761;SDS011;4920;49.594;11.022;2022-07-29T07:34:05;4.55;;;2.65;;
9761;SDS011;4920;49.594;11.022;2022-07-29T07:36:33;7.00;;;2.60;;
9761;SDS011;4920;49.594;11.022;2022-07-29T07:39:01;4.90;;;2.58;;
9761;SDS011;4920;49.594;11.022;2022-07-29T07:41:31;4.28;;;2.55;;
9761;SDS011;4920;49.594;11.022;2022-07-29T07:43:59;6.28;;;2.95;;
9761;SDS011;4920;49.594;11.022;2022-07-29T07:46:28;6.75;;;2.90;;
9761;SDS011;4920;49.594;11.022;2022-07-29T07:48:58;5.72;;;2.90;;
9761;SDS011;4920;49.594;11.022;2022-07-29T07:51:28;5.57;;;2.70;;
9761;SDS011;4920;49.594;11.022;2022-07-29T07:53:57;5.72;;;2.78;;
9761;SDS011;4920;49.594;11.022;2022-07-29T07:56:25;4.38;;;2.78;;
9761;SDS011;4920;49.594;11.022;2022-07-29T07:59:00;6.03;;;3.10;;
9761;SDS011;4920;49.594;11.022;2022-07-29T08:01:28;5.60;;;2.90;;
9761;SDS011;4920;49.594;11.022;2022-07-29T08:04:17;4.57;;;2.80;;
9761;SDS011;4920;49.594;11.022;2022-07-29T08:06:54;4.35;;;3.00;;
9761;SDS011;4920;49.594;11.022;2022-07-29T08:09:22;4.93;;;2.67;;
9761;SDS011;4920;49.594;11.022;2022-07-29T08:11:56;5.30;;;2.70;;
9761;SDS011;4920;49.594;11.022;2022-07-29T08:14:25;5.53;;;2.80;;
9761;SDS011;4920;49.594;11.022;2022-07-29T08:16:53;5.30;;;2.78;;
9761;SDS011;4920;49.594;11.022;2022-07-29T08:19:21;4.22;;;2.70;;
9761;SDS011;4920;49.594;11.022;2022-07-29T08:21:50;6.93;;;2.88;;
9761;SDS011;4920;49.594;11.022;2022-07-29T08:24:22;4.63;;;2.63;;
9761;SDS011;4920;49.594;11.022;2022-07-29T08:27:07;7.47;;;3.00;;
9761;SDS011;4920;49.594;11.022;2022-07-29T08:29:55;8.07;;;3.17;;
9761;SDS011;4920;49.594;11.022;2022-07-29T08:32:24;4.15;;;2.78;;
9761;SDS011;4920;49.594;11.022;2022-07-29T08:35:12;3.45;;;2.70;;
9761;SDS011;4920;49.594;11.022;2022-07-29T08:37:40;4.03;;;2.80;;
9761;SDS011;4920;49.594;11.022;2022-07-29T08:40:10;7.03;;;2.90;;
9761;SDS011;4920;49.594;11.022;2022-07-29T08:42:44;4.03;;;2.95;;
9761;SDS011;4920;49.594;11.022;2022-07-29T08:45:13;4.40;;;2.80;;
9761;SDS011;4920;49.594;11.022;2022-07-29T08:47:41;6.55;;;3.08;;
9761;SDS011;4920;49.594;11.022;2022-07-29T08:50:11;5.72;;;3.03;;
9761;SDS011;4920;49.594;11.022;2022-07-29T08:52:40;7.85;;;3.90;;
9761;SDS011;4920;49.594;11.022;2022-07-29T08:55:10;5.05;;;3.30;;
9761;SDS011;4920;49.594;11.022;2022-07-29T08:57:41;4.80;;;2.88;;
9761;SDS011;4920;49.594;11.022;2022-07-29T09:00:22;8.57;;;2.90;;
9761;SDS011;4920;49.594;11.022;2022-07-29T09:02:56;6.32;;;3.47;;
9761;SDS011;4920;49.594;11.022;2022-07-29T09:05:25;9.88;;;3.30;;
9761;SDS011;4920;49.594;11.022;2022-07-29T09:07:54;5.72;;;2.95;;
9761;SDS011;4920;49.594;11.022;2022-07-29T09:10:25;4.55;;;3.10;;
9761;SDS011;4920;49.594;11.022;2022-07-29T09:12:54;5.15;;;3.05;;
9761;SDS011;4920;49.594;11.022;2022-07-29T09:15:22;3.80;;;2.75;;
9761;SDS011;4920;49.594;11.022;2022-07-29T09:17:51;3.65;;;2.80;;
9761;SDS011;4920;49.594;11.022;2022-07-29T09:20:20;4.00;;;2.72;;
9761;SDS011;4920;49.594;11.022;2022-07-29T09:22:49;4.60;;;3.28;;
9761;SDS011;4920;49.594;11.022;2022-07-29T09:25:33;5.18;;;3.03;;
9761;SDS011;4920;49.594;11.022;2022-07-29T09:28:06;4.85;;;2.67;;
9761;SDS011;4920;49.594;11.022;2022-07-29T09:30:35;5.18;;;3.17;;
9761;SDS011;4920;49.594;11.022;2022-07-29T09:33:06;6.97;;;3.13;;
9761;SDS011;4920;49.594;11.022;2022-07-29T09:35:38;5.13;;;3.20;;
9761;SDS011;4920;49.594;11.022;2022-07-29T09:38:22;4.93;;;2.90;;
9761;SDS011;4920;49.594;11.022;2022-07-29T09:40:56;5.40;;;2.95;;
9761;SDS011;4920;49.594;11.022;2022-07-29T09:43:31;6.40;;;3.00;;
9761;SDS011;4920;49.594;11.022;2022-07-29T09:46:09;3.78;;;3.08;;
9761;SDS011;4920;49.594;11.022;2022-07-29T09:48:43;5.43;;;3.00;;
9761;SDS011;4920;49.594;11.022;2022-07-29T09:51:17;3.95;;;3.10;;
9761;SDS011;4920;49.594;11.022;2022-07-29T09:54:04;5.95;;;3.45;;
9761;SDS011;4920;49.594;11.022;2022-07-29T09:56:51;3.90;;;3.40;;
9761;SDS011;4920;49.594;11.022;2022-07-29T09:59:20;6.20;;;3.45;;
9761;SDS011;4920;49.594;11.022;2022-07-29T10:01:52;6.53;;;3.53;;
9761;SDS011;4920;49.594;11.022;2022-07-29T10:04:21;6.20;;;3.80;;
9761;SDS011;4920;49.594;11.022;2022-07-29T10:06:56;4.57;;;3.10;;
9761;SDS011;4920;49.594;11.022;2022-07-29T10:09:30;7.63;;;3.65;;
9761;SDS011;4920;49.594;11.022;2022-07-29T10:12:04;4.35;;;3.50;;
9761;SDS011;4920;49.594;11.022;2022-07-29T10:14:37;5.82;;;3.70;;
9761;SDS011;4920;49.594;11.022;2022-07-29T10:17:06;6.32;;;3.72;;
9761;SDS011;4920;49.594;11.022;2022-07-29T10:22:29;5.18;;;3.55;;
9761;SDS011;4920;49.594;11.022;2022-07-29T10:25:18;6.40;;;3.70;;
9761;SDS011;4920;49.594;11.022;2022-07-29T10:27:49;6.03;;;3.55;;
9761;SDS011;4920;49.594;11.022;2022-07-29T10:30:19;3.97;;;3.58;;
9761;SDS011;4920;49.594;11.022;2022-07-29T10:32:54;4.03;;;3.63;;
9761;SDS011;4920;49.594;11.022;2022-07-29T10:35:33;6.03;;;3.70;;
9761;SDS011;4920;49.594;11.022;2022-07-29T10:44:25;5.68;;;3.80;;
9761;SDS011;4920;49.594;11.022;2022-07-29T10:46:54;6.47;;;3.92;;
9761;SDS011;4920;49.594;11.022;2022-07-29T10:49:23;6.70;;;3.85;;
9761;SDS011;4920;49.594;11.022;2022-07-29T10:52:00;5.32;;;3.53;;
9761;SDS011;4920;49.594;11.022;2022-07-29T10:54:47;6.13;;;3.83;;
9761;SDS011;4920;49.594;11.022;2022-07-29T10:57:19;5.53;;;3.80;;
9761;SDS011;4920;49.594;11.022;2022-07-29T11:02:57;7.22;;;4.10;;
9761;SDS011;4920;49.594;11.022;2022-07-29T11:05:54;4.30;;;3.90;;
9761;SDS011;4920;49.594;11.022;2022-07-29T11:08:25;7.82;;;4.03;;
9761;SDS011;4920;49.594;11.022;2022-07-29T11:14:13;5.15;;;3.85;;
9761;SDS011;4920;49.594;11.022;2022-07-29T11:17:01;6.50;;;4.10;;
9761;SDS011;4920;49.594;11.022;2022-07-29T11:19:32;5.35;;;4.35;;
9761;SDS011;4920;49.594;11.022;2022-07-29T11:22:08;5.50;;;4.30;;
9761;SDS011;4920;49.594;11.022;2022-07-29T11:24:41;8.80;;;4.65;;
9761;SDS011;4920;49.594;11.022;2022-07-29T11:27:16;4.97;;;4.30;;
9761;SDS011;4920;49.594;11.022;2022-07-29T11:29:52;7.43;;;4.40;;
9761;SDS011;4920;49.594;11.022;2022-07-29T11:32:23;6.38;;;4.18;;
9761;SDS011;4920;49.594;11.022;2022-07-29T11:35:11;6.40;;;4.32;;
9761;SDS011;4920;49.594;11.022;2022-07-29T11:37:44;5.38;;;4.80;;
9761;SDS011;4920;49.594;11.022;2022-07-29T11:40:21;6.03;;;4.78;;
9761;SDS011;4920;49.594;11.022;2022-07-29T11:42:49;5.82;;;4.22;;
9761;SDS011;4920;49.594;11.022;2022-07-29T11:49:27;6.07;;;4.53;;
9761;SDS011;4920;49.594;11.022;2022-07-29T11:51:58;5.72;;;4.70;;
9761;SDS011;4920;49.594;11.022;2022-07-29T11:54:30;4.55;;;4.15;;
9761;SDS011;4920;49.594;11.022;2022-07-29T11:57:21;6.00;;;4.60;;
9761;SDS011;4920;49.594;11.022;2022-07-29T12:00:03;4.80;;;4.40;;
9761;SDS011;4920;49.594;11.022;2022-07-29T12:02:42;5.60;;;4.38;;
9761;SDS011;4920;49.594;11.022;2022-07-29T12:05:16;5.82;;;4.72;;
9761;SDS011;4920;49.594;11.022;2022-07-29T12:08:06;6.07;;;4.47;;
9761;SDS011;4920;49.594;11.022;2022-07-29T12:10:41;6.35;;;4.78;;
9761;SDS011;4920;49.594;11.022;2022-07-29T12:13:10;6.82;;;4.43;;
9761;SDS011;4920;49.594;11.022;2022-07-29T12:15:38;5.85;;;4.32;;
9761;SDS011;4920;49.594;11.022;2022-07-29T12:18:13;5.53;;;4.05;;
9761;SDS011;4920;49.594;11.022;2022-07-29T12:20:45;6.07;;;4.50;;
9761;SDS011;4920;49.594;11.022;2022-07-29T12:23:15;4.95;;;4.22;;
9761;SDS011;4920;49.594;11.022;2022-07-29T12:25:44;5.55;;;4.32;;
9761;SDS011;4920;49.594;11.022;2022-07-29T12:28:15;5.20;;;4.18;;
9761;SDS011;4920;49.594;11.022;2022-07-29T12:30:53;7.60;;;4.00;;
9761;SDS011;4920;49.594;11.022;2022-07-29T12:33:21;7.72;;;4.65;;
9761;SDS011;4920;49.594;11.022;2022-07-29T12:35:52;6.10;;;4.15;;
9761;SDS011;4920;49.594;11.022;2022-07-29T12:38:33;7.03;;;4.20;;
9761;SDS011;4920;49.594;11.022;2022-07-29T12:41:02;5.18;;;4.32;;
9761;SDS011;4920;49.594;11.022;2022-07-29T12:43:31;5.40;;;4.05;;
9761;SDS011;4920;49.594;11.022;2022-07-29T12:46:11;6.15;;;4.22;;
9761;SDS011;4920;49.594;11.022;2022-07-29T12:48:41;6.68;;;3.95;;
9761;SDS011;4920;49.594;11.022;2022-07-29T12:51:12;5.30;;;4.38;;
9761;SDS011;4920;49.594;11.022;2022-07-29T12:56:30;5.53;;;3.75;;
9761;SDS011;4920;49.594;11.022;2022-07-29T12:59:12;6.35;;;3.75;;
9761;SDS011;4920;49.594;11.022;2022-07-29T13:01:42;5.80;;;3.92;;
9761;SDS011;4920;49.594;11.022;2022-07-29T13:04:11;5.65;;;3.45;;
9761;SDS011;4920;49.594;11.022;2022-07-29T13:06:59;5.43;;;3.85;;
9761;SDS011;4920;49.594;11.022;2022-07-29T13:09:37;4.78;;;3.55;;
9761;SDS011;4920;49.594;11.022;2022-07-29T13:12:07;5.15;;;3.40;;
9761;SDS011;4920;49.594;11.022;2022-07-29T13:14:37;6.28;;;3.78;;
9761;SDS011;4920;49.594;11.022;2022-07-29T13:17:07;5.97;;;3.65;;
9761;SDS011;4920;49.594;11.022;2022-07-29T13:19:37;6.28;;;3.80;;
9761;SDS011;4920;49.594;11.022;2022-07-29T13:22:09;4.70;;;3.53;;
9761;SDS011;4920;49.594;11.022;2022-07-29T13:24:45;9.57;;;3.72;;
9761;SDS011;4920;49.594;11.022;2022-07-29T13:27:15;3.83;;;3.50;;
9761;SDS011;4920;49.594;11.022;2022-07-29T13:29:44;4.70;;;3.35;;
9761;SDS011;4920;49.594;11.022;2022-07-29T13:32:14;4.57;;;3.75;;
9761;SDS011;4920;49.594;11.022;2022-07-29T13:34:43;6.00;;;3.70;;
9761;SDS011;4920;49.594;11.022;2022-07-29T13:37:12;6.65;;;4.32;;
9761;SDS011;4920;49.594;11.022;2022-07-29T13:39:41;6.22;;;3.85;;
9761;SDS011;4920;49.594;11.022;2022-07-29T13:42:18;4.60;;;3.88;;
9761;SDS011;4920;49.594;11.022;2022-07-29T13:44:47;4.10;;;3.70;;
9761;SDS011;4920;49.594;11.022;2022-07-29T13:47:17;7.53;;;3.90;;
9761;SDS011;4920;49.594;11.022;2022-07-29T13:49:45;5.15;;;3.28;;
9761;SDS011;4920;49.594;11.022;2022-07-29T13:52:15;4.30;;;3.90;;
9761;SDS011;4920;49.594;11.022;2022-07-29T13:54:43;6.68;;;3.78;;
9761;SDS011;4920;49.594;11.022;2022-07-29T13:57:12;5.78;;;3.60;;
9761;SDS011;4920;49.594;11.022;2022-07-29T13:59:42;4.40;;;3.83;;
9761;SDS011;4920;49.594;11.022;2022-07-29T14:02:16;5.88;;;3.95;;
9761;SDS011;4920;49.594;11.022;2022-07-29T14:04:44;4.85;;;3.95;;
9761;SDS011;4920;49.594;11.022;2022-07-29T14:07:12;6.80;;;4.20;;
9761;SDS011;4920;49.594;11.022;2022-07-29T14:09:43;4.82;;;3.40;;
9761;SDS011;4920;49.594;11.022;2022-07-29T14:12:11;4.53;;;3.10;;
9761;SDS011;4920;49.594;11.022;2022-07-29T14:14:40;5.85;;;3.33;;
9761;SDS011;4920;49.594;11.022;2022-07-29T14:17:08;7.70;;;3.42;;
9761;SDS011;4920;49.594;11.022;2022-07-29T14:19:37;5.07;;;3.20;;
9761;SDS011;4920;49.594;11.022;2022-07-29T14:22:06;8.25;;;3.40;;
9761;SDS011;4920;49.594;11.022;2022-07-29T14:24:36;10.07;;;3.90;;
9761;SDS011;4920;49.594;11.022;2022-07-29T14:27:06;7.97;;;3.92;;
9761;SDS011;4920;49.594;11.022;2022-07-29T14:29:35;10.15;;;4.43;;
9761;SDS011;4920;49.594;11.022;2022-07-29T14:32:04;10.13;;;4.72;;
9761;SDS011;4920;49.594;11.022;2022-07-29T14:34:34;16.67;;;6.80;;
9761;SDS011;4920;49.594;11.022;2022-07-29T14:37:02;36.20;;;7.82;;
9761;SDS011;4920;49.594;11.022;2022-07-29T14:39:32;35.72;;;7.60;;
9761;SDS011;4920;49.594;11.022;2022-07-29T14:42:10;17.70;;;8.48;;
9761;SDS011;4920;49.594;11.022;2022-07-29T14:44:39;19.48;;;9.13;;
9761;SDS011;4920;49.594;11.022;2022-07-29T14:47:10;13.52;;;9.38;;
9761;SDS011;4920;49.594;11.022;2022-07-29T14:49:38;22.92;;;12.18;;
9761;SDS011;4920;49.594;11.022;2022-07-29T14:52:06;20.70;;;14.30;;
9761;SDS011;4920;49.594;11.022;2022-07-29T14:54:35;14.38;;;11.80;;
9761;SDS011;4920;49.594;11.022;2022-07-29T14:57:03;14.82;;;11.05;;
9761;SDS011;4920;49.594;11.022;2022-07-29T14:59:33;15.82;;;11.38;;
9761;SDS011;4920;49.594;11.022;2022-07-29T15:02:01;14.80;;;10.68;;
9761;SDS011;4920;49.594;11.022;2022-07-29T15:04:30;11.13;;;9.43;;
9761;SDS011;4920;49.594;11.022;2022-07-29T15:06:58;12.82;;;10.43;;
9761;SDS011;4920;49.594;11.022;2022-07-29T15:09:26;13.55;;;11.30;;
9761;SDS011;4920;49.594;11.022;2022-07-29T15:11:55;12.90;;;10.68;;
9761;SDS011;4920;49.594;11.022;2022-07-29T15:14:23;10.52;;;9.45;;
9761;SDS011;4920;49.594;11.022;2022-07-29T15:16:53;10.23;;;9.10;;
9761;SDS011;4920;49.594;11.022;2022-07-29T15:19:22;12.35;;;10.85;;
9761;SDS011;4920;49.594;11.022;2022-07-29T15:21:51;10.38;;;8.88;;
9761;SDS011;4920;49.594;11.022;2022-07-29T15:24:23;11.10;;;8.60;;
9761;SDS011;4920;49.594;11.022;2022-07-29T15:26:51;10.45;;;8.25;;
9761;SDS011;4920;49.594;11.022;2022-07-29T15:29:20;12.07;;;9.70;;
9761;SDS011;4920;49.594;11.022;2022-07-29T15:31:48;15.93;;;10.98;;
9761;SDS011;4920;49.594;11.022;2022-07-29T15:34:18;15.02;;;11.30;;
9761;SDS011;4920;49.594;11.022;2022-07-29T15:36:49;15.93;;;13.40;;
9761;SDS011;4920;49.594;11.022;2022-07-29T15:39:19;16.02;;;12.93;;
9761;SDS011;4920;49.594;11.022;2022-07-29T15:41:48;12.13;;;10.23;;
9761;SDS011;4920;49.594;11.022;2022-07-29T15:44:17;15.40;;;12.45;;
9761;SDS011;4920;49.594;11.022;2022-07-29T15:46:46;15.13;;;11.88;;
9761;SDS011;4920;49.594;11.022;2022-07-29T15:49:32;13.63;;;12.15;;
9761;SDS011;4920;49.594;11.022;2022-07-29T15:52:14;13.30;;;11.88;;
9761;SDS011;4920;49.594;11.022;2022-07-29T15:54:50;13.27;;;10.40;;
9761;SDS011;4920;49.594;11.022;2022-07-29T15:57:18;11.05;;;9.40;;
9761;SDS011;4920;49.594;11.022;2022-07-29T15:59:50;10.23;;;8.82;;
9761;SDS011;4920;49.594;11.022;2022-07-29T16:02:18;12.43;;;8.90;;